createdAt,value
2023-10-23T00:01:41.263Z,3.03
2023-10-23T00:06:35.737Z,3.17
2023-10-23T00:11:31.494Z,2.90
2023-10-23T00:16:24.032Z,2.80
2023-10-23T00:21:24.385Z,2.80
2023-10-23T00:26:16.552Z,2.97
2023-10-23T00:31:08.508Z,2.73
2023-10-23T00:36:00.440Z,2.90
2023-10-23T00:40:52.547Z,3.07
2023-10-23T00:45:56.620Z,2.87
2023-10-23T00:50:50.443Z,2.50
2023-10-23T00:55:44.371Z,2.90
2023-10-23T01:00:37.172Z,2.60
2023-10-23T01:05:29.969Z,2.93
2023-10-23T01:15:28.716Z,3.20
2023-10-23T01:20:21.886Z,3.80
2023-10-23T01:25:21.955Z,2.83
2023-10-23T01:30:13.983Z,3.03
2023-10-23T01:35:07.557Z,2.80
2023-10-23T01:39:59.650Z,3.00
2023-10-23T01:44:51.652Z,2.40
2023-10-23T01:49:53.424Z,2.80
2023-10-23T01:54:45.874Z,3.43
2023-10-23T01:59:38.472Z,3.50
2023-10-23T02:04:34.308Z,2.80
2023-10-23T02:09:26.612Z,3.03
2023-10-23T02:14:19.450Z,3.10
2023-10-23T02:19:11.298Z,3.13
2023-10-23T02:24:03.887Z,2.83
2023-10-23T02:28:56.911Z,2.80
2023-10-23T02:33:48.696Z,2.87
2023-10-23T02:38:40.725Z,2.63
2023-10-23T02:43:32.591Z,2.80
2023-10-23T02:48:24.432Z,3.00
2023-10-23T02:53:16.343Z,2.70
2023-10-23T02:58:08.109Z,3.00
2023-10-23T03:02:59.888Z,2.67
2023-10-23T03:07:51.925Z,3.43
2023-10-23T03:12:47.526Z,3.27
2023-10-23T03:17:39.901Z,4.00
2023-10-23T03:22:33.728Z,4.10
2023-10-23T03:27:29.171Z,3.07
2023-10-23T03:32:21.317Z,3.20
2023-10-23T03:37:13.562Z,3.30
2023-10-23T03:42:05.821Z,3.40
2023-10-23T03:46:58.283Z,3.03
2023-10-23T03:51:50.162Z,3.50
2023-10-23T03:56:42.462Z,3.00
2023-10-23T04:01:34.761Z,3.07
2023-10-23T04:06:27.781Z,3.27
2023-10-23T04:11:20.040Z,2.90
2023-10-23T04:16:13.084Z,3.00
2023-10-23T04:21:08.564Z,2.93
2023-10-23T04:26:02.789Z,3.20
2023-10-23T04:30:57.565Z,3.70
2023-10-23T04:35:58.820Z,4.23
2023-10-23T04:40:51.925Z,3.73
2023-10-23T04:45:51.899Z,3.93
2023-10-23T04:50:44.206Z,3.83
2023-10-23T04:55:39.697Z,3.43
2023-10-23T05:11:15.025Z,3.60
2023-10-23T05:16:11.790Z,3.53
2023-10-23T05:21:12.280Z,3.27
2023-10-23T05:31:11.175Z,2.90
2023-10-23T05:36:10.544Z,5.23
2023-10-23T05:41:03.475Z,3.83
2023-10-23T05:45:57.244Z,3.67
2023-10-23T06:01:17.859Z,3.47
2023-10-23T06:06:09.786Z,3.77
2023-10-23T06:11:04.508Z,4.20
2023-10-23T06:16:04.580Z,3.60
2023-10-23T06:21:05.014Z,3.43
2023-10-23T06:31:16.055Z,4.07
2023-10-23T06:36:09.409Z,3.83
2023-10-23T06:41:08.796Z,4.90
2023-10-23T06:46:02.959Z,4.30
2023-10-23T06:56:09.990Z,5.23
2023-10-23T07:01:09.874Z,4.73
2023-10-23T07:06:09.774Z,4.83
2023-10-23T07:11:02.061Z,4.40
2023-10-23T07:15:53.964Z,4.00
2023-10-23T07:21:06.779Z,3.30
2023-10-23T07:26:28.423Z,3.40
2023-10-23T07:31:21.046Z,3.70
2023-10-23T07:36:14.965Z,3.00
2023-10-23T07:41:07.455Z,2.43
2023-10-23T07:46:15.457Z,2.43
2023-10-23T07:56:17.179Z,2.87
2023-10-23T08:01:17.758Z,2.85
2023-10-23T08:06:19.138Z,2.40
2023-10-23T08:11:14.925Z,3.35
2023-10-23T08:16:07.517Z,3.72
2023-10-23T08:20:59.556Z,2.00
2023-10-23T08:25:51.395Z,2.03
2023-10-23T08:30:46.588Z,2.15
2023-10-23T08:35:38.839Z,1.73
2023-10-23T08:40:30.762Z,1.88
2023-10-23T08:45:24.119Z,1.90
2023-10-23T08:50:16.549Z,2.20
2023-10-23T08:55:17.320Z,1.92
2023-10-23T09:00:10.229Z,2.40
2023-10-23T09:05:02.988Z,3.10
2023-10-23T09:10:04.900Z,2.97
2023-10-23T09:14:56.654Z,2.70
2023-10-23T09:19:49.335Z,2.42
2023-10-23T09:24:42.964Z,2.10
2023-10-23T09:29:36.339Z,2.00
2023-10-23T09:34:30.216Z,2.30
2023-10-23T09:39:24.002Z,1.95
2023-10-23T09:44:18.010Z,2.20
2023-10-23T09:59:43.169Z,2.40
2023-10-23T10:15:56.985Z,2.27
2023-10-23T10:20:56.945Z,3.13
2023-10-23T10:46:47.864Z,1.60
2023-10-23T11:12:51.003Z,1.73
2023-10-23T11:17:55.362Z,2.38
2023-10-23T11:38:40.767Z,2.13
2023-10-23T11:43:34.716Z,1.60
2023-10-23T11:58:50.828Z,1.90
2023-10-23T12:03:42.912Z,1.70
2023-10-23T12:08:36.956Z,2.10
2023-10-23T12:13:31.112Z,1.90
2023-10-23T12:18:29.897Z,1.95
2023-10-23T12:23:22.535Z,1.88
2023-10-23T12:33:35.494Z,1.80
2023-10-23T12:38:29.964Z,1.60
2023-10-23T12:43:21.741Z,1.80
2023-10-23T12:48:13.862Z,1.85
2023-10-23T12:53:11.008Z,1.70
2023-10-23T12:58:04.959Z,1.80
2023-10-23T13:08:04.778Z,2.20
2023-10-23T13:12:56.792Z,1.77
2023-10-23T13:17:49.549Z,1.90
2023-10-23T13:22:41.401Z,1.88
2023-10-23T13:27:39.491Z,2.17
2023-10-23T13:32:31.463Z,1.90
2023-10-23T13:37:23.694Z,1.63
2023-10-23T13:52:37.000Z,1.63
2023-10-23T14:02:34.583Z,1.50
2023-10-23T14:07:27.118Z,1.50
2023-10-23T14:17:28.297Z,1.50
2023-10-23T14:22:21.948Z,1.40
2023-10-23T14:32:23.487Z,1.38
2023-10-23T14:52:50.808Z,1.20
2023-10-23T15:23:21.337Z,1.10
2023-10-23T15:43:45.556Z,1.15
2023-10-23T15:48:38.651Z,1.50
2023-10-23T15:53:38.019Z,1.40
2023-10-23T16:19:09.969Z,1.80
2023-10-23T16:29:13.094Z,2.00
2023-10-23T16:39:14.968Z,1.70
2023-10-23T16:44:07.998Z,2.22
2023-10-23T16:49:02.913Z,2.22
2023-10-23T16:53:56.907Z,2.00
2023-10-23T16:58:58.289Z,4.90
2023-10-23T17:03:53.758Z,2.30
2023-10-23T17:14:04.458Z,3.00
2023-10-23T17:18:58.928Z,4.47
2023-10-23T17:23:51.992Z,3.90
2023-10-23T17:28:47.332Z,2.80
2023-10-23T17:33:40.412Z,3.15
2023-10-23T17:38:32.933Z,2.42
2023-10-23T17:43:25.727Z,2.70
2023-10-23T17:48:18.349Z,3.00
2023-10-23T17:53:10.104Z,4.40
2023-10-23T17:58:02.653Z,2.97
2023-10-23T18:02:58.137Z,3.08
2023-10-23T18:07:58.589Z,2.50
2023-10-23T18:12:55.650Z,2.78
2023-10-23T18:22:58.059Z,2.38
2023-10-23T18:27:50.156Z,2.60
2023-10-23T18:32:46.097Z,3.38
2023-10-23T18:37:40.667Z,3.00
2023-10-23T18:42:35.266Z,2.90
2023-10-23T18:47:29.218Z,3.00
2023-10-23T18:52:21.080Z,3.13
2023-10-23T18:57:14.567Z,3.10
2023-10-23T19:07:41.851Z,4.00
2023-10-23T19:12:34.461Z,3.77
2023-10-23T19:17:39.758Z,4.10
2023-10-23T19:22:35.423Z,3.60
2023-10-23T19:27:27.408Z,3.50
2023-10-23T19:32:22.592Z,4.18
2023-10-23T19:42:26.638Z,4.20
2023-10-23T19:47:19.732Z,3.90
2023-10-23T19:52:15.379Z,4.47
2023-10-23T19:57:11.011Z,4.45
2023-10-23T20:02:05.336Z,4.43
2023-10-23T20:06:58.257Z,4.50
2023-10-23T20:11:57.589Z,5.30
2023-10-23T20:16:57.904Z,4.63
2023-10-23T20:21:50.917Z,5.07
2023-10-23T20:26:43.049Z,5.05
2023-10-23T20:31:37.440Z,5.50
2023-10-23T20:36:33.271Z,4.72
2023-10-23T20:41:25.258Z,5.13
2023-10-23T20:46:18.319Z,5.28
2023-10-23T20:51:14.897Z,5.47
2023-10-23T20:56:07.429Z,5.22
2023-10-23T21:01:09.206Z,4.90
2023-10-23T21:11:12.638Z,4.77
2023-10-23T21:16:09.018Z,4.93
2023-10-23T21:21:01.448Z,4.82
2023-10-23T21:30:59.750Z,5.07
2023-10-23T21:41:00.581Z,4.70
2023-10-23T21:46:09.393Z,5.60
2023-10-23T21:57:19.053Z,4.78
2023-10-23T22:01:36.556Z,5.15
2023-10-23T22:06:29.033Z,5.07
2023-10-23T22:11:21.155Z,5.07
2023-10-23T22:16:14.791Z,5.13
2023-10-23T22:21:07.069Z,5.20
2023-10-23T22:26:00.922Z,5.65
2023-10-23T22:30:53.958Z,5.53
2023-10-23T22:35:45.775Z,5.78
2023-10-23T22:40:37.930Z,5.80
2023-10-23T22:45:29.932Z,5.35
2023-10-23T22:50:22.625Z,5.30
2023-10-23T22:55:16.593Z,6.05
2023-10-23T23:05:21.816Z,5.40
2023-10-23T23:15:29.231Z,5.23
2023-10-23T23:20:26.666Z,5.37
2023-10-23T23:25:27.060Z,5.32
2023-10-23T23:35:27.358Z,4.80
2023-10-23T23:40:19.431Z,5.47
2023-10-23T23:45:13.465Z,5.25
2023-10-23T23:50:09.744Z,5.70
